Time;durP1;ratioP1;P1;durP2;ratioP2;P2;SDS_P1;SDS_P2;PMS_P1;PMS_P2;Temp;Humidity;BMP_temperature;BMP_pressure;BME280_temperature;BME280_humidity;BME280_pressure;Samples;Min_cycle;Max_cycle;Signal;HPM_P1;HPM_P2
2023/08/30 00:01:58;;;;;;;2.50;2.30;;;;;;;13.57;87.85;100094.19;5098517;28;20200;-79
2023/08/30 00:04:25;;;;;;;2.60;2.10;;;;;;;13.54;88.22;100081.91;5097980;28;20611;-78
2023/08/30 00:06:51;;;;;;;3.30;2.20;;;;;;;13.53;87.51;100097.09;5091087;28;20242;-79
2023/08/30 00:09:18;;;;;;;2.53;1.70;;;;;;;13.52;87.69;100092.72;5098201;28;20247;-78
2023/08/30 00:11:44;;;;;;;3.30;2.00;;;;;;;13.45;87.13;100091.53;5095715;28;20212;-78
2023/08/30 00:14:11;;;;;;;2.20;2.00;;;;;;;13.41;86.95;100095.47;5100229;28;20208;-79
2023/08/30 00:16:39;;;;;;;3.20;2.40;;;;;;;13.37;86.97;100090.50;5099291;28;20213;-79
2023/08/30 00:19:05;;;;;;;2.33;2.13;;;;;;;13.35;87.45;100089.78;5100215;28;20221;-79
2023/08/30 00:21:32;;;;;;;2.27;2.07;;;;;;;13.31;87.52;100093.69;5101245;28;20209;-78
2023/08/30 00:23:58;;;;;;;2.87;2.20;;;;;;;13.26;87.26;100096.72;5096610;28;20211;-77
2023/08/30 00:26:25;;;;;;;2.23;2.03;;;;;;;13.19;87.13;100090.22;5097285;28;20208;-76
2023/08/30 00:28:51;;;;;;;3.10;2.07;;;;;;;13.12;86.76;100097.00;5095109;28;20620;-78
2023/08/30 00:31:17;;;;;;;6.70;2.40;;;;;;;12.98;86.24;100098.13;5094367;28;20211;-80
2023/08/30 00:33:45;;;;;;;2.70;2.30;;;;;;;12.91;86.94;100094.25;5093311;28;20215;-79
2023/08/30 00:36:12;;;;;;;2.40;2.20;;;;;;;12.86;88.06;100093.81;5097609;28;20292;-81
2023/08/30 00:38:38;;;;;;;3.37;2.60;;;;;;;12.84;88.76;100090.41;5096278;28;20217;-80
2023/08/30 00:41:05;;;;;;;2.63;2.43;;;;;;;12.82;88.73;100092.34;5097898;28;20209;-80
2023/08/30 00:43:31;;;;;;;2.50;2.30;;;;;;;12.82;89.46;100095.03;5098719;28;20204;-78
2023/08/30 00:45:58;;;;;;;2.87;2.53;;;;;;;12.81;89.60;100091.50;5091692;28;20204;-80
2023/08/30 00:48:24;;;;;;;2.90;2.20;;;;;;;12.81;90.25;100088.84;5098031;28;20963;-80
2023/08/30 00:50:52;;;;;;;2.37;2.17;;;;;;;12.82;90.04;100093.19;5094839;28;20205;-80
2023/08/30 00:53:19;;;;;;;2.57;2.40;;;;;;;12.83;90.14;100094.91;5095851;28;20203;-79
2023/08/30 00:55:46;;;;;;;5.07;2.67;;;;;;;12.82;90.31;100095.88;5096681;28;20212;-80
2023/08/30 00:58:12;;;;;;;3.07;2.47;;;;;;;12.84;91.00;100087.72;5098558;28;20212;-80
2023/08/30 01:00:40;;;;;;;2.93;2.50;;;;;;;12.83;90.04;100094.06;5096802;28;20204;-79
2023/08/30 01:03:07;;;;;;;4.53;2.73;;;;;;;12.80;89.99;100094.28;5094213;28;20196;-78
2023/08/30 01:05:34;;;;;;;2.90;2.70;;;;;;;12.77;90.02;100094.53;5094131;28;20212;-79
2023/08/30 01:08:02;;;;;;;2.83;2.63;;;;;;;12.74;90.38;100089.44;5092537;28;20234;-78
2023/08/30 01:10:39;;;;;;;2.50;2.30;;;;;;;12.69;90.61;100089.84;5098261;28;20197;-80
2023/08/30 01:13:10;;;;;;;3.13;2.77;;;;;;;12.65;91.07;100079.50;5094074;28;20296;-79
2023/08/30 01:15:39;;;;;;;2.80;2.60;;;;;;;12.64;91.08;100084.00;5096128;28;20215;-79
2023/08/30 01:18:08;;;;;;;2.80;2.50;;;;;;;12.64;91.66;100083.16;5094255;28;20245;-79
2023/08/30 01:20:38;;;;;;;5.47;2.80;;;;;;;12.64;91.73;100081.34;5091195;28;20214;-78
2023/08/30 01:23:09;;;;;;;2.60;2.40;;;;;;;12.64;91.54;100084.00;5096950;28;20197;-79
2023/08/30 01:25:47;;;;;;;2.90;2.70;;;;;;;12.60;90.55;100081.69;5096599;28;20200;-79
2023/08/30 01:28:17;;;;;;;2.37;2.17;;;;;;;12.56;90.82;100080.25;5093467;28;20824;-79
2023/08/30 01:30:45;;;;;;;2.70;2.50;;;;;;;12.52;90.80;100085.84;5098152;28;20216;-81
2023/08/30 01:33:14;;;;;;;4.30;2.87;;;;;;;12.51;91.02;100072.63;5092070;28;20192;-80
2023/08/30 01:35:41;;;;;;;2.80;2.60;;;;;;;12.49;90.75;100078.09;5096342;28;20788;-81
2023/08/30 01:38:09;;;;;;;3.00;2.70;;;;;;;12.49;91.20;100074.56;5096764;28;20280;-80
2023/08/30 01:40:37;;;;;;;3.03;2.50;;;;;;;12.46;91.57;100067.63;5092025;28;20200;-79
2023/08/30 01:43:07;;;;;;;4.33;2.90;;;;;;;12.46;91.89;100067.63;5096748;28;20219;-80
2023/08/30 01:45:36;;;;;;;4.23;3.03;;;;;;;12.46;91.90;100070.31;5091252;28;20231;-78
2023/08/30 01:48:05;;;;;;;3.27;2.90;;;;;;;12.46;91.49;100067.63;5093887;28;20734;-78
2023/08/30 01:50:33;;;;;;;3.00;2.70;;;;;;;12.45;91.52;100067.75;5095144;28;20207;-80
2023/08/30 01:53:00;;;;;;;3.50;3.10;;;;;;;12.41;91.11;100064.47;5093630;28;20200;-79
2023/08/30 01:55:29;;;;;;;3.10;2.90;;;;;;;12.39;91.16;100060.22;5092166;28;20644;-80
2023/08/30 01:57:55;;;;;;;3.37;3.17;;;;;;;12.36;91.09;100065.84;5095724;28;20220;-78
2023/08/30 02:00:22;;;;;;;3.07;2.70;;;;;;;12.28;90.76;100063.78;5094326;28;20564;-80
2023/08/30 02:02:49;;;;;;;3.10;2.90;;;;;;;12.18;90.33;100070.81;5092374;28;20201;-79
2023/08/30 02:05:15;;;;;;;4.43;2.80;;;;;;;12.11;91.09;100064.25;5090424;28;20319;-79
2023/08/30 02:07:52;;;;;;;2.90;2.60;;;;;;;12.04;90.99;100066.56;5094788;28;20246;-78
2023/08/30 02:10:24;;;;;;;2.73;2.53;;;;;;;12.00;91.59;100066.94;5094141;28;20195;-79
2023/08/30 02:12:54;;;;;;;3.20;3.00;;;;;;;11.95;91.32;100061.94;5091762;28;20582;-79
2023/08/30 02:15:21;;;;;;;4.40;3.33;;;;;;;11.92;92.31;100064.00;5094455;28;20207;-80
2023/08/30 02:17:51;;;;;;;3.63;3.33;;;;;;;11.90;92.37;100069.47;5096212;28;20232;-79
2023/08/30 02:20:17;;;;;;;5.93;2.93;;;;;;;11.88;92.73;100063.38;5095326;28;20215;-79
2023/08/30 02:22:44;;;;;;;2.90;2.67;;;;;;;11.89;92.94;100057.09;5093289;28;20534;-80
2023/08/30 02:25:10;;;;;;;3.40;3.10;;;;;;;11.90;93.19;100052.59;5094536;28;20208;-79
2023/08/30 02:27:37;;;;;;;6.87;3.00;;;;;;;11.90;92.96;100047.25;5095670;28;20220;-79
2023/08/30 02:30:04;;;;;;;3.27;3.00;;;;;;;11.91;92.77;100051.63;5096053;28;20226;-79
2023/08/30 02:32:30;;;;;;;4.40;3.33;;;;;;;11.90;93.06;100052.59;5093626;28;20207;-78
2023/08/30 02:34:58;;;;;;;2.80;2.60;;;;;;;11.90;93.05;100064.13;5091636;28;20211;-78
2023/08/30 02:37:25;;;;;;;4.83;3.23;;;;;;;11.90;93.41;100064.13;5091965;28;20949;-78
2023/08/30 02:39:52;;;;;;;4.20;2.87;;;;;;;11.90;93.75;100055.25;5095004;28;20238;-80
2023/08/30 02:42:18;;;;;;;3.57;2.90;;;;;;;11.90;93.60;100050.78;5084553;28;20199;-80
2023/08/30 02:44:45;;;;;;;4.67;2.90;;;;;;;11.90;93.56;100056.13;5093218;28;20215;-78
2023/08/30 02:47:11;;;;;;;3.03;2.63;;;;;;;11.88;93.25;100059.88;5094515;28;20216;-80
2023/08/30 02:49:38;;;;;;;2.40;2.20;;;;;;;11.86;93.13;100053.78;5095419;28;20226;-78
2023/08/30 02:52:07;;;;;;;5.13;2.50;;;;;;;11.82;92.77;100055.88;5094978;28;20208;-79
2023/08/30 02:54:34;;;;;;;3.37;2.47;;;;;;;11.77;92.68;100056.22;5093836;28;20206;-78
2023/08/30 02:57:00;;;;;;;2.97;2.77;;;;;;;11.75;93.04;100052.78;5092318;28;20215;-79
2023/08/30 02:59:27;;;;;;;3.37;3.07;;;;;;;11.70;93.46;100049.63;5095124;28;20227;-79
2023/08/30 03:01:53;;;;;;;3.17;2.87;;;;;;;11.68;93.74;100054.22;5096553;28;20208;-79
2023/08/30 03:04:20;;;;;;;2.77;2.53;;;;;;;11.65;93.53;100050.94;5091776;28;20213;-79
2023/08/30 03:06:46;;;;;;;2.87;2.67;;;;;;;11.62;93.38;100052.06;5098510;28;20219;-78
2023/08/30 03:09:14;;;;;;;3.30;2.87;;;;;;;11.59;93.48;100057.63;5098965;28;20230;-79
2023/08/30 03:11:40;;;;;;;2.93;2.70;;;;;;;11.54;93.61;100046.44;5099121;28;20210;-79
2023/08/30 03:14:07;;;;;;;3.30;2.90;;;;;;;11.50;93.73;100047.63;5099367;28;20214;-78
2023/08/30 03:16:34;;;;;;;3.53;3.23;;;;;;;11.46;94.12;100056.88;5099050;28;20219;-78
2023/08/30 03:19:00;;;;;;;3.57;3.27;;;;;;;11.40;94.40;100050.19;5099422;28;20227;-79
2023/08/30 03:21:26;;;;;;;3.73;3.43;;;;;;;11.36;94.74;100045.19;5096401;28;20821;-78
2023/08/30 03:23:53;;;;;;;3.70;3.40;;;;;;;11.32;95.20;100046.38;5098968;28;20658;-79
2023/08/30 03:26:21;;;;;;;3.57;3.27;;;;;;;11.29;95.91;100041.28;5099037;28;20208;-79
2023/08/30 03:28:47;;;;;;;5.73;3.73;;;;;;;11.27;96.59;100040.56;5089476;28;20242;-78
2023/08/30 03:31:15;;;;;;;4.27;3.60;;;;;;;11.26;97.45;100045.03;5097971;28;20218;-80
2023/08/30 03:33:42;;;;;;;4.33;3.93;;;;;;;11.30;97.77;100032.31;5097799;28;20806;-78
2023/08/30 03:36:10;;;;;;;4.43;3.43;;;;;;;11.31;98.29;100034.00;5098427;28;20645;-78
2023/08/30 03:38:36;;;;;;;4.30;3.90;;;;;;;11.31;98.67;100036.69;5095608;28;20226;-79
2023/08/30 03:41:03;;;;;;;5.07;3.80;;;;;;;11.27;98.89;100030.75;5097752;28;20202;-80
2023/08/30 03:43:31;;;;;;;4.10;3.80;;;;;;;11.26;99.49;100033.53;5094197;28;20432;-78
2023/08/30 03:45:58;;;;;;;4.23;3.83;;;;;;;11.27;100.00;100029.91;5100405;28;20210;-80
2023/08/30 03:48:24;;;;;;;4.67;4.27;;;;;;;11.28;100.00;100032.47;5097797;28;20227;-79
2023/08/30 03:50:50;;;;;;;4.40;4.00;;;;;;;11.27;100.00;100025.44;5097810;28;20212;-80
2023/08/30 03:53:17;;;;;;;4.57;4.17;;;;;;;11.29;100.00;100030.59;5096801;28;20200;-79
2023/08/30 03:55:43;;;;;;;4.43;3.83;;;;;;;11.30;100.00;100022.50;5100693;28;20215;-79
2023/08/30 03:58:10;;;;;;;4.47;4.07;;;;;;;11.30;100.00;100013.66;5095056;28;20603;-80
2023/08/30 04:00:39;;;;;;;5.00;4.50;;;;;;;11.31;100.00;100026.00;5092006;28;20205;-79
2023/08/30 04:03:06;;;;;;;5.73;4.47;;;;;;;11.33;100.00;100013.41;5092479;28;20497;-79
2023/08/30 04:05:34;;;;;;;4.97;4.57;;;;;;;11.30;100.00;100018.97;5098124;28;20207;-78
2023/08/30 04:08:02;;;;;;;17.70;5.10;;;;;;;11.27;100.00;100037.91;5093291;28;20221;-78
2023/08/30 04:10:28;;;;;;;4.50;4.20;;;;;;;11.24;100.00;100036.31;5096501;28;20236;-77
2023/08/30 04:12:55;;;;;;;5.30;4.80;;;;;;;11.23;100.00;100033.75;5094873;28;20625;-78
2023/08/30 04:15:21;;;;;;;5.53;4.90;;;;;;;11.19;100.00;100030.47;5096350;28;20585;-79
2023/08/30 04:17:49;;;;;;;4.90;4.50;;;;;;;11.17;100.00;100013.75;5095957;28;20228;-79
2023/08/30 04:20:16;;;;;;;5.13;4.73;;;;;;;11.12;100.00;100022.09;5094055;28;20211;-79
2023/08/30 04:22:42;;;;;;;5.20;4.70;;;;;;;11.07;100.00;100026.94;5091628;28;20220;-79
2023/08/30 04:25:09;;;;;;;4.30;3.90;;;;;;;11.04;100.00;100027.16;5092059;28;20766;-79
2023/08/30 04:27:36;;;;;;;5.57;4.63;;;;;;;11.04;100.00;100021.81;5089121;28;20221;-80
2023/08/30 04:30:03;;;;;;;5.47;5.07;;;;;;;11.08;100.00;100022.44;5084063;28;20217;-83
2023/08/30 04:32:30;;;;;;;5.70;5.20;;;;;;;11.12;100.00;100011.41;5084394;28;20199;-79
2023/08/30 04:34:57;;;;;;;6.17;5.67;;;;;;;11.13;100.00;100015.78;5086671;28;20525;-83
2023/08/30 04:37:42;;;;;;;5.27;4.77;;;;;;;11.13;100.00;100022.94;5087246;28;20206;-80
2023/08/30 04:40:10;;;;;;;5.03;4.63;;;;;;;11.11;100.00;100017.72;5083417;28;20964;-81
2023/08/30 04:42:36;;;;;;;5.77;4.90;;;;;;;11.10;100.00;100021.38;5089082;28;20209;-81
2023/08/30 04:45:03;;;;;;;5.40;4.90;;;;;;;11.11;100.00;100015.06;5085094;28;20205;-79
2023/08/30 04:47:31;;;;;;;5.43;4.93;;;;;;;11.11;100.00;100019.53;5086775;28;20205;-81
2023/08/30 04:49:59;;;;;;;5.73;5.23;;;;;;;11.12;100.00;100015.91;5087683;28;20260;-82
2023/08/30 04:52:25;;;;;;;5.10;4.70;;;;;;;11.17;100.00;100018.22;5089937;28;20212;-80
2023/08/30 04:54:53;;;;;;;7.70;4.93;;;;;;;11.20;100.00;100010.84;5088996;28;20202;-82
2023/08/30 04:57:19;;;;;;;5.33;4.83;;;;;;;11.25;100.00;100016.69;5085474;28;20209;-82
2023/08/30 04:59:46;;;;;;;5.93;4.93;;;;;;;11.29;100.00;100011.94;5088380;28;20210;-80
2023/08/30 05:02:12;;;;;;;4.90;4.40;;;;;;;11.32;100.00;100014.38;5081566;28;20208;-82
2023/08/30 05:04:39;;;;;;;5.07;4.67;;;;;;;11.37;100.00;100012.22;5084367;28;20217;-79
2023/08/30 05:07:07;;;;;;;5.20;4.80;;;;;;;11.38;100.00;100017.44;5085658;28;20212;-81
2023/08/30 05:09:34;;;;;;;5.87;5.30;;;;;;;11.41;100.00;100017.22;5087100;28;20689;-83
2023/08/30 05:12:01;;;;;;;6.10;5.47;;;;;;;11.44;100.00;100016.97;5081882;28;20298;-80
2023/08/30 05:14:28;;;;;;;5.63;5.13;;;;;;;11.47;100.00;100021.22;5091054;28;20238;-81
2023/08/30 05:16:54;;;;;;;6.83;6.13;;;;;;;11.52;100.00;100015.53;5082678;28;20227;-80
2023/08/30 05:19:21;;;;;;;6.70;6.10;;;;;;;11.55;100.00;100010.81;5087918;28;20234;-80
2023/08/30 05:21:51;;;;;;;6.80;6.03;;;;;;;11.58;100.00;100007.91;5083860;28;20202;-83
2023/08/30 05:24:18;;;;;;;6.80;6.10;;;;;;;11.64;100.00;100009.25;5089395;28;20208;-84
2023/08/30 05:26:46;;;;;;;6.93;6.27;;;;;;;11.67;100.00;100006.31;5088695;28;20206;-84
2023/08/30 05:29:13;;;;;;;7.07;6.37;;;;;;;11.72;100.00;100004.16;5085720;28;20222;-80
2023/08/30 05:31:39;;;;;;;6.67;6.07;;;;;;;11.77;100.00;100008.22;5088421;28;20218;-83
2023/08/30 05:34:06;;;;;;;6.67;6.07;;;;;;;11.85;100.00;100010.25;5079378;28;20680;-81
2023/08/30 05:36:32;;;;;;;6.70;6.00;;;;;;;11.90;100.00;100009.91;5087276;28;20207;-82
2023/08/30 05:38:59;;;;;;;8.60;6.70;;;;;;;11.99;100.00;100003.84;5090550;28;20228;-84
2023/08/30 05:41:27;;;;;;;6.50;5.90;;;;;;;12.07;100.00;100014.75;5089750;28;20207;-81
2023/08/30 05:43:54;;;;;;;6.17;5.57;;;;;;;12.13;100.00;100011.59;5092139;28;20657;-82
2023/08/30 05:46:21;;;;;;;10.47;6.40;;;;;;;12.22;100.00;100008.19;5092136;28;20218;-82
2023/08/30 05:48:47;;;;;;;8.40;6.13;;;;;;;12.31;100.00;100007.47;5089777;28;20224;-86
2023/08/30 05:51:13;;;;;;;6.60;5.93;;;;;;;12.40;100.00;100016.53;5088675;28;20228;-84
2023/08/30 05:53:40;;;;;;;6.33;5.83;;;;;;;12.47;100.00;100007.91;5090111;28;20207;-83
2023/08/30 05:56:06;;;;;;;6.90;6.30;;;;;;;12.55;100.00;100011.75;5086792;28;20203;-83
2023/08/30 05:58:35;;;;;;;6.93;5.83;;;;;;;12.61;100.00;100001.44;5086990;28;20221;-83
2023/08/30 06:01:02;;;;;;;6.90;6.17;;;;;;;12.71;100.00;99999.72;5091706;28;20653;-81
2023/08/30 06:03:29;;;;;;;7.70;5.90;;;;;;;12.79;100.00;99994.56;5091610;28;20260;-83
2023/08/30 06:05:55;;;;;;;6.03;5.53;;;;;;;12.90;100.00;99993.66;5092740;28;20204;-82
2023/08/30 06:08:22;;;;;;;6.43;5.93;;;;;;;13.00;100.00;99985.75;5092726;28;20222;-80
2023/08/30 06:10:48;;;;;;;6.60;5.70;;;;;;;13.12;100.00;99982.03;5088176;28;20227;-80
2023/08/30 06:13:15;;;;;;;6.80;6.10;;;;;;;13.23;100.00;99978.50;5091933;28;20204;-83
2023/08/30 06:15:44;;;;;;;7.03;5.30;;;;;;;13.30;100.00;99976.97;5090571;28;20215;-82
2023/08/30 06:18:11;;;;;;;5.83;5.33;;;;;;;13.35;100.00;99974.78;5091527;28;20956;-81
2023/08/30 06:20:41;;;;;;;5.53;5.03;;;;;;;13.45;100.00;99978.34;5083994;28;20192;-82
2023/08/30 06:23:07;;;;;;;6.00;4.90;;;;;;;13.52;100.00;99985.72;5088982;28;20204;-83
2023/08/30 06:25:34;;;;;;;5.70;5.20;;;;;;;13.60;100.00;99982.41;5091709;28;20211;-81
2023/08/30 06:28:02;;;;;;;5.63;4.93;;;;;;;13.68;100.00;99979.88;5091753;28;20228;-81
2023/08/30 06:30:29;;;;;;;5.57;5.07;;;;;;;13.78;100.00;99975.44;5094072;28;20277;-83
2023/08/30 06:32:57;;;;;;;5.10;4.63;;;;;;;13.88;100.00;99979.00;5095341;28;20211;-83
2023/08/30 06:35:23;;;;;;;5.30;4.80;;;;;;;13.98;100.00;99980.84;5094962;28;20578;-82
2023/08/30 06:37:50;;;;;;;5.57;5.07;;;;;;;14.07;100.00;99970.19;5094937;28;20227;-81
2023/08/30 06:40:17;;;;;;;5.67;5.27;;;;;;;14.17;100.00;99968.38;5093715;28;20574;-84
2023/08/30 06:42:43;;;;;;;7.77;5.30;;;;;;;14.29;100.00;99968.28;5095706;28;20205;-85
2023/08/30 06:45:10;;;;;;;6.20;5.73;;;;;;;14.38;100.00;99972.81;5093990;28;20566;-82
2023/08/30 06:47:37;;;;;;;6.87;5.47;;;;;;;14.47;100.00;99972.03;5093710;28;20652;-83
2023/08/30 06:50:06;;;;;;;5.57;5.07;;;;;;;14.55;100.00;99964.13;5090645;28;20236;-83
2023/08/30 06:52:32;;;;;;;6.00;4.53;;;;;;;14.63;99.58;99969.66;5095177;28;20251;-81
2023/08/30 06:54:59;;;;;;;4.90;4.40;;;;;;;14.70;98.57;99972.59;5088885;28;20216;-81
2023/08/30 06:57:25;;;;;;;6.40;4.50;;;;;;;14.74;98.14;99965.97;5095318;28;20680;-82
2023/08/30 06:59:51;;;;;;;5.53;4.67;;;;;;;14.80;97.78;99968.09;5095164;28;20571;-80
2023/08/30 07:02:18;;;;;;;5.20;4.63;;;;;;;14.85;97.15;99968.53;5084149;28;20657;-82
2023/08/30 07:04:44;;;;;;;6.47;4.93;;;;;;;14.89;96.08;99960.06;5091453;28;20249;-81
2023/08/30 07:07:13;;;;;;;5.70;5.03;;;;;;;14.95;95.38;99966.69;5093514;28;20213;-81
2023/08/30 07:09:41;;;;;;;4.60;4.10;;;;;;;15.03;95.08;99963.31;5093819;28;20223;-80
2023/08/30 07:12:08;;;;;;;7.27;4.70;;;;;;;15.09;94.58;99958.22;5093684;28;20218;-80
2023/08/30 07:14:35;;;;;;;5.20;4.70;;;;;;;15.17;93.94;99961.03;5092524;28;20207;-82
2023/08/30 07:17:01;;;;;;;5.47;4.97;;;;;;;15.26;93.45;99954.78;5093400;28;20571;-81
2023/08/30 07:19:27;;;;;;;5.43;4.00;;;;;;;15.38;93.43;99962.69;5093480;28;20247;-81
2023/08/30 07:21:54;;;;;;;4.23;3.77;;;;;;;15.49;92.43;99959.84;5088661;28;20217;-80
2023/08/30 07:24:22;;;;;;;6.67;3.83;;;;;;;15.58;89.34;99965.22;5093570;28;20209;-83
2023/08/30 07:26:49;;;;;;;11.67;4.33;;;;;;;15.68;88.32;99964.34;5081476;28;20619;-82
2023/08/30 07:29:15;;;;;;;4.53;4.13;;;;;;;15.76;85.37;99959.94;5091084;28;20230;-81
2023/08/30 07:31:42;;;;;;;5.23;4.23;;;;;;;15.82;82.23;99950.44;5093036;28;20232;-80
2023/08/30 07:34:08;;;;;;;5.77;4.20;;;;;;;15.89;80.94;99955.06;5093476;28;20648;-81
2023/08/30 07:36:35;;;;;;;5.77;4.10;;;;;;;16.04;79.44;99949.22;5092121;28;20213;-79
2023/08/30 07:39:01;;;;;;;5.23;4.60;;;;;;;16.16;79.97;99942.63;5089114;28;20236;-81
2023/08/30 07:41:29;;;;;;;4.70;4.27;;;;;;;16.29;79.07;99948.53;5090149;28;20240;-80
2023/08/30 07:43:55;;;;;;;6.47;5.37;;;;;;;16.43;78.38;99939.09;5091761;28;20232;-81
2023/08/30 07:46:22;;;;;;;5.60;5.10;;;;;;;16.63;76.32;99943.38;5087023;28;20230;-80
2023/08/30 07:48:48;;;;;;;5.93;5.13;;;;;;;16.72;76.30;99946.97;5091524;28;20696;-80
2023/08/30 07:51:15;;;;;;;6.77;5.30;;;;;;;16.82;75.91;99945.06;5093651;28;20225;-81
2023/08/30 07:53:41;;;;;;;6.43;5.47;;;;;;;16.92;74.92;99952.03;5092518;28;20212;-79
2023/08/30 07:56:08;;;;;;;5.43;4.53;;;;;;;17.03;73.83;99956.31;5085389;28;20201;-81
2023/08/30 07:58:36;;;;;;;6.17;5.07;;;;;;;17.17;73.71;99946.88;5086012;28;20222;-81
2023/08/30 08:01:03;;;;;;;4.80;4.40;;;;;;;17.29;73.06;99942.91;5092269;28;20210;-80
2023/08/30 08:03:29;;;;;;;6.30;5.20;;;;;;;17.39;72.80;99948.19;5093002;28;20235;-79
2023/08/30 08:05:56;;;;;;;5.00;4.50;;;;;;;17.53;71.62;99939.56;5089948;28;20201;-81
2023/08/30 08:08:22;;;;;;;5.43;4.73;;;;;;;17.57;70.32;99938.22;5088833;28;20221;-79
2023/08/30 08:10:48;;;;;;;5.17;4.67;;;;;;;17.69;69.20;99934.28;5093052;28;20228;-81
2023/08/30 08:13:15;;;;;;;6.57;4.63;;;;;;;17.76;67.89;99935.31;5093288;28;20202;-80
2023/08/30 08:15:43;;;;;;;13.60;6.03;;;;;;;17.80;67.95;99934.00;5093107;28;20217;-81
2023/08/30 08:18:10;;;;;;;6.20;4.40;;;;;;;17.90;66.70;99939.28;5091337;28;20234;-81
2023/08/30 08:20:39;;;;;;;14.63;4.93;;;;;;;17.95;66.89;99937.78;5091030;28;20563;-85
2023/08/30 08:23:05;;;;;;;5.07;3.30;;;;;;;17.95;66.73;99936.94;5089916;28;20255;-81
2023/08/30 08:25:32;;;;;;;3.83;3.20;;;;;;;17.97;67.32;99940.31;5087511;28;20280;-79
2023/08/30 08:27:58;;;;;;;4.03;3.47;;;;;;;18.10;67.19;99945.25;5093084;28;20254;-79
2023/08/30 08:30:25;;;;;;;4.23;3.80;;;;;;;18.20;66.47;99943.28;5092585;28;20226;-79
2023/08/30 08:32:53;;;;;;;3.87;3.57;;;;;;;18.27;66.90;99928.16;5086577;28;20240;-79
2023/08/30 08:35:19;;;;;;;5.40;3.90;;;;;;;18.34;66.15;99929.16;5087196;28;20217;-81
2023/08/30 08:37:46;;;;;;;4.50;4.10;;;;;;;18.37;66.82;99923.44;5093676;28;20226;-82
2023/08/30 08:40:13;;;;;;;6.47;3.83;;;;;;;18.42;67.25;99917.56;5092090;28;20211;-81
2023/08/30 08:42:40;;;;;;;7.53;5.37;;;;;;;18.53;67.09;99925.31;5090148;28;20203;-79
2023/08/30 08:45:09;;;;;;;8.63;5.77;;;;;;;18.60;66.92;99921.84;5093797;28;20655;-79
2023/08/30 08:47:37;;;;;;;7.70;6.87;;;;;;;18.70;66.87;99924.38;5089387;28;20218;-79
2023/08/30 08:50:06;;;;;;;24.37;10.90;;;;;;;18.71;66.61;99937.69;5090181;28;20208;-79
2023/08/30 08:52:34;;;;;;;177.27;38.13;;;;;;;18.76;66.77;99936.38;5089920;28;20203;-78
2023/08/30 08:55:01;;;;;;;9.37;6.73;;;;;;;18.77;66.16;99930.81;5088770;28;20705;-80
2023/08/30 08:57:31;;;;;;;5.93;5.33;;;;;;;18.86;66.11;99928.94;5092923;28;20213;-80
2023/08/30 08:59:57;;;;;;;6.00;5.40;;;;;;;18.91;66.85;99927.44;5089699;28;20679;-80
2023/08/30 09:02:24;;;;;;;7.57;6.77;;;;;;;18.93;67.08;99925.41;5091624;28;20675;-79
2023/08/30 09:04:52;;;;;;;8.57;6.00;;;;;;;18.98;67.31;99924.91;5092874;28;20208;-81
2023/08/30 09:07:20;;;;;;;8.90;8.00;;;;;;;19.05;66.57;99924.06;5092383;28;20206;-81
2023/08/30 09:09:46;;;;;;;9.17;7.33;;;;;;;19.09;66.33;99924.56;5087751;28;20207;-78
2023/08/30 09:12:14;;;;;;;7.73;6.93;;;;;;;19.13;66.38;99925.91;5089721;28;20316;-80
2023/08/30 09:14:40;;;;;;;9.83;8.27;;;;;;;19.16;65.79;99919.34;5090238;28;20235;-78
2023/08/30 09:17:07;;;;;;;8.87;7.97;;;;;;;19.24;65.96;99924.72;5088756;28;20204;-84
2023/08/30 09:19:33;;;;;;;9.13;8.23;;;;;;;19.28;65.67;99920.66;5085986;28;20238;-82
2023/08/30 09:22:00;;;;;;;8.43;7.63;;;;;;;19.32;65.25;99928.25;5085922;28;20656;-80
2023/08/30 09:24:38;;;;;;;8.53;7.63;;;;;;;19.37;64.25;99922.34;5091765;28;20220;-80
2023/08/30 09:27:05;;;;;;;9.23;8.23;;;;;;;19.44;64.66;99917.94;5086120;28;20708;-80
2023/08/30 09:29:32;;;;;;;9.30;8.07;;;;;;;19.51;64.68;99927.09;5086775;28;20230;-81
2023/08/30 09:31:59;;;;;;;8.63;7.77;;;;;;;19.57;64.56;99920.13;5091576;28;20235;-82
2023/08/30 09:34:26;;;;;;;11.80;9.30;;;;;;;19.68;62.80;99931.44;5089510;28;20208;-80
2023/08/30 09:36:53;;;;;;;9.30;8.50;;;;;;;19.67;62.49;99915.41;5089871;28;20199;-82
2023/08/30 09:39:20;;;;;;;12.83;9.67;;;;;;;19.69;62.62;99911.50;5089935;28;20776;-81
2023/08/30 09:41:49;;;;;;;7.57;6.87;;;;;;;19.76;62.68;99911.63;5091930;28;20234;-81
2023/08/30 09:44:17;;;;;;;8.03;7.23;;;;;;;19.80;62.38;99907.56;5084999;28;20213;-81
2023/08/30 09:46:44;;;;;;;7.80;7.10;;;;;;;19.88;61.95;99909.41;5092599;28;20699;-81
2023/08/30 09:49:11;;;;;;;6.83;6.13;;;;;;;19.93;62.56;99915.13;5087506;28;20720;-81
2023/08/30 09:51:41;;;;;;;6.20;5.60;;;;;;;19.98;63.01;99910.03;5087582;28;20226;-82
2023/08/30 09:54:14;;;;;;;6.40;5.80;;;;;;;20.08;62.51;99910.66;5088025;28;20206;-80
2023/08/30 09:56:42;;;;;;;7.50;5.93;;;;;;;20.15;62.03;99910.81;5089475;28;20189;-80
2023/08/30 09:59:11;;;;;;;5.90;5.23;;;;;;;20.26;61.78;99902.28;5083308;28;20226;-79
2023/08/30 10:01:38;;;;;;;6.50;4.97;;;;;;;20.34;61.85;99900.38;5093109;28;20208;-81
2023/08/30 10:04:05;;;;;;;5.73;5.23;;;;;;;20.44;60.26;99902.88;5089925;28;20217;-80
2023/08/30 10:06:33;;;;;;;5.80;5.20;;;;;;;20.55;60.19;99902.50;5090710;28;20203;-80
2023/08/30 10:09:00;;;;;;;6.05;5.25;;;;;;;20.66;60.22;99909.34;5090443;28;20224;-81
2023/08/30 10:11:29;;;;;;;5.32;4.82;;;;;;;20.84;58.07;99903.63;5083059;28;20220;-82
2023/08/30 10:13:56;;;;;;;5.57;5.07;;;;;;;20.91;58.45;99900.03;5091247;28;20579;-82
2023/08/30 10:16:27;;;;;;;6.20;4.97;;;;;;;20.98;58.61;99902.81;5089134;28;20679;-81
2023/08/30 10:19:00;;;;;;;5.20;4.70;;;;;;;21.08;57.24;99898.03;5083810;28;20815;-79
2023/08/30 10:21:28;;;;;;;6.20;5.05;;;;;;;21.15;55.76;99898.94;5087808;28;20698;-80
2023/08/30 10:23:56;;;;;;;5.53;5.03;;;;;;;21.17;56.38;99896.91;5081425;28;20207;-79
2023/08/30 10:26:24;;;;;;;7.22;6.22;;;;;;;21.14;56.77;99892.69;5096587;28;20306;-79
2023/08/30 10:28:54;;;;;;;6.03;5.50;;;;;;;21.13;55.99;99890.19;5094086;28;20223;-80
2023/08/30 10:31:20;;;;;;;7.10;5.60;;;;;;;21.19;56.61;99889.44;5091065;28;20238;-79
2023/08/30 10:33:54;;;;;;;7.13;5.65;;;;;;;21.24;55.57;99886.22;5087501;28;20210;-79
2023/08/30 10:36:23;;;;;;;5.80;4.53;;;;;;;21.28;55.17;99893.81;5089027;28;20748;-80
2023/08/30 10:38:50;;;;;;;6.32;5.65;;;;;;;21.32;55.40;99894.25;5085853;28;20232;-82
2023/08/30 10:41:21;;;;;;;6.88;5.47;;;;;;;21.35;55.84;99885.75;5091723;28;20200;-81
2023/08/30 10:43:52;;;;;;;6.68;5.38;;;;;;;21.39;55.26;99893.34;5088927;28;20200;-81
2023/08/30 10:46:29;;;;;;;5.75;5.25;;;;;;;21.39;54.53;99882.50;5090329;28;20195;-80
2023/08/30 10:48:57;;;;;;;6.05;5.45;;;;;;;21.40;54.79;99884.19;5091755;28;20230;-83
2023/08/30 10:51:36;;;;;;;5.50;5.00;;;;;;;21.39;54.87;99884.38;5082569;28;20224;-82
2023/08/30 10:54:11;;;;;;;6.25;5.63;;;;;;;21.38;54.54;99880.81;5085605;28;20203;-79
2023/08/30 10:56:47;;;;;;;5.85;4.90;;;;;;;21.40;55.13;99878.78;5088694;28;20202;-79
2023/08/30 10:59:17;;;;;;;6.00;5.30;;;;;;;21.40;54.96;99880.63;5083145;28;20253;-79
2023/08/30 11:01:44;;;;;;;5.60;5.10;;;;;;;21.38;55.04;99878.09;5082248;28;20208;-81
2023/08/30 11:04:13;;;;;;;6.20;4.07;;;;;;;21.33;56.14;99864.28;5092123;28;20208;-83
2023/08/30 11:06:40;;;;;;;4.72;4.22;;;;;;;21.40;56.00;99865.22;5091007;28;20238;-81
2023/08/30 11:09:08;;;;;;;4.45;3.78;;;;;;;21.45;56.07;99857.38;5087721;28;20628;-80
2023/08/30 11:11:35;;;;;;;4.78;4.38;;;;;;;21.47;56.04;99852.63;5088389;28;20224;-81
2023/08/30 11:14:05;;;;;;;6.18;5.50;;;;;;;21.53;54.85;99855.59;5085525;28;20204;-79
2023/08/30 11:16:31;;;;;;;4.93;4.43;;;;;;;21.55;54.99;99851.69;5087173;28;20205;-79
2023/08/30 11:18:58;;;;;;;6.75;5.45;;;;;;;21.59;54.05;99844.88;5096930;28;20223;-79
2023/08/30 11:21:25;;;;;;;7.65;6.90;;;;;;;21.56;53.38;99841.69;5090115;28;20671;-80
2023/08/30 11:23:52;;;;;;;6.28;5.68;;;;;;;21.52;53.08;99838.50;5087698;28;20208;-80
2023/08/30 11:26:19;;;;;;;6.07;5.47;;;;;;;21.46;53.80;99836.56;5094619;28;20675;-80
2023/08/30 11:28:48;;;;;;;7.03;5.32;;;;;;;21.44;54.74;99838.63;5090835;28;20227;-78